createdAt,value
2023-02-26T00:00:21.335Z,98.83
2023-02-26T00:02:24.059Z,99.14
2023-02-26T00:04:28.310Z,98.00
2023-02-26T00:06:33.592Z,98.40
2023-02-26T00:08:36.506Z,97.65
2023-02-26T00:10:39.073Z,97.89
2023-02-26T00:12:42.258Z,98.56
2023-02-26T00:14:45.585Z,97.87
2023-02-26T00:16:54.558Z,96.17
2023-02-26T00:18:58.936Z,97.47
2023-02-26T00:21:03.688Z,97.41
2023-02-26T00:23:06.972Z,97.04
2023-02-26T00:25:10.782Z,96.76
2023-02-26T00:27:13.758Z,97.73
2023-02-26T00:29:17.026Z,97.60
2023-02-26T00:31:24.541Z,97.23
2023-02-26T00:33:27.943Z,98.08
2023-02-26T00:35:31.168Z,98.33
2023-02-26T00:37:51.399Z,97.73
2023-02-26T00:40:06.337Z,96.53
2023-02-26T00:42:09.849Z,96.03
2023-02-26T00:44:13.125Z,96.18
2023-02-26T00:46:25.325Z,96.46
2023-02-26T00:48:47.002Z,94.85
2023-02-26T00:50:57.924Z,95.40
2023-02-26T00:53:11.392Z,96.67
2023-02-26T00:55:14.154Z,96.00
2023-02-26T00:57:16.772Z,94.90
2023-02-26T00:59:20.505Z,95.75
2023-02-26T01:01:23.142Z,95.80
2023-02-26T01:03:26.446Z,95.84
2023-02-26T01:05:29.736Z,98.01
2023-02-26T01:07:41.457Z,96.11
2023-02-26T01:09:46.151Z,96.47
2023-02-26T01:11:50.006Z,95.92
2023-02-26T01:13:53.211Z,95.89
2023-02-26T01:16:03.681Z,97.63
2023-02-26T01:18:12.751Z,96.55
2023-02-26T01:20:19.568Z,96.65
2023-02-26T01:22:30.094Z,95.76
2023-02-26T01:24:35.005Z,96.48
2023-02-26T01:26:39.417Z,96.12
2023-02-26T01:28:42.415Z,96.43
2023-02-26T01:30:46.265Z,96.78
2023-02-26T01:32:53.341Z,96.78
2023-02-26T01:35:00.955Z,96.69
2023-02-26T01:37:14.792Z,97.17
2023-02-26T01:39:26.855Z,96.60
2023-02-26T01:41:32.326Z,96.91
2023-02-26T01:43:45.330Z,96.25
2023-02-26T01:45:55.581Z,96.31
2023-02-26T01:48:04.613Z,96.90
2023-02-26T01:50:14.082Z,96.83
2023-02-26T01:53:05.264Z,96.95
2023-02-26T01:55:08.034Z,97.39
2023-02-26T01:57:15.290Z,97.20
2023-02-26T01:59:24.423Z,97.97
2023-02-26T02:01:27.324Z,97.74
2023-02-26T02:03:33.110Z,98.89
2023-02-26T02:05:42.714Z,98.68
2023-02-26T02:07:45.314Z,98.29
2023-02-26T02:09:48.347Z,98.80
2023-02-26T02:12:06.214Z,98.51
2023-02-26T02:14:14.893Z,98.53
2023-02-26T02:16:29.027Z,99.52
2023-02-26T02:18:43.104Z,99.02
2023-02-26T02:21:22.910Z,99.53
2023-02-26T02:23:34.186Z,99.55
2023-02-26T02:26:01.904Z,98.72
2023-02-26T02:28:14.179Z,98.99
2023-02-26T02:30:30.650Z,97.78
2023-02-26T02:32:39.835Z,99.66
2023-02-26T02:34:48.299Z,98.74
2023-02-26T02:36:58.226Z,97.35
2023-02-26T02:39:04.314Z,97.20
2023-02-26T02:41:10.558Z,96.97
2023-02-26T02:43:16.316Z,97.73
2023-02-26T02:45:25.107Z,98.73
2023-02-26T02:47:29.862Z,98.02
2023-02-26T02:49:38.578Z,98.64
2023-02-26T02:51:46.224Z,98.32
2023-02-26T02:53:52.168Z,97.63
2023-02-26T02:55:59.403Z,98.06
2023-02-26T02:58:05.888Z,98.53
2023-02-26T03:00:12.938Z,98.62
2023-02-26T03:02:20.693Z,99.46
2023-02-26T03:04:23.502Z,99.30
2023-02-26T03:06:27.636Z,99.02
2023-02-26T03:08:35.943Z,99.75
2023-02-26T03:10:38.780Z,99.49
2023-02-26T03:12:41.430Z,98.97
2023-02-26T03:14:44.552Z,99.71
2023-02-26T03:17:01.493Z,99.32
2023-02-26T03:19:16.733Z,100.00
2023-02-26T03:21:28.150Z,100.00
2023-02-26T03:23:36.536Z,100.00
2023-02-26T03:25:46.564Z,100.00
2023-02-26T03:27:56.082Z,100.00
2023-02-26T03:30:03.563Z,100.00
2023-02-26T03:32:12.110Z,100.00
2023-02-26T03:34:20.676Z,100.00
2023-02-26T03:36:30.453Z,100.00
2023-02-26T03:38:40.214Z,100.00
2023-02-26T03:40:47.045Z,100.00
2023-02-26T03:42:54.874Z,100.00
2023-02-26T03:45:00.924Z,100.00
2023-02-26T03:47:11.621Z,100.00
2023-02-26T03:49:21.614Z,100.00
2023-02-26T03:51:27.645Z,99.99
2023-02-26T03:53:37.698Z,100.00
2023-02-26T03:55:45.641Z,100.00
2023-02-26T03:57:49.670Z,99.41
2023-02-26T03:59:52.390Z,100.00
2023-02-26T04:02:00.464Z,100.00
2023-02-26T04:04:06.742Z,99.51
2023-02-26T04:06:10.061Z,99.41
2023-02-26T04:08:12.772Z,99.52
2023-02-26T04:10:21.525Z,99.59
2023-02-26T04:12:25.626Z,99.88
2023-02-26T04:14:28.266Z,99.75
2023-02-26T04:16:31.242Z,100.00
2023-02-26T04:18:34.027Z,100.00
2023-02-26T04:20:36.739Z,100.00
2023-02-26T04:22:39.726Z,100.00
2023-02-26T04:24:42.472Z,100.00
2023-02-26T04:26:46.478Z,100.00
2023-02-26T04:28:49.050Z,100.00
2023-02-26T04:30:51.801Z,100.00
2023-02-26T04:32:54.533Z,100.00
2023-02-26T04:34:57.278Z,100.00
2023-02-26T04:36:59.962Z,100.00
2023-02-26T04:39:02.724Z,100.00
2023-02-26T04:41:05.565Z,100.00
2023-02-26T04:43:09.604Z,100.00
2023-02-26T04:45:12.210Z,100.00
2023-02-26T04:47:15.060Z,100.00
2023-02-26T04:49:17.929Z,100.00
2023-02-26T04:51:20.574Z,100.00
2023-02-26T04:53:23.201Z,100.00
2023-02-26T04:55:25.947Z,100.00
2023-02-26T04:57:28.631Z,100.00
2023-02-26T04:59:32.648Z,100.00
2023-02-26T05:01:35.897Z,100.00
2023-02-26T05:03:38.539Z,100.00
2023-02-26T05:05:41.133Z,100.00
2023-02-26T05:07:43.823Z,100.00
2023-02-26T05:09:46.756Z,100.00
2023-02-26T05:11:49.522Z,100.00
2023-02-26T05:13:52.159Z,100.00
2023-02-26T05:15:56.224Z,100.00
2023-02-26T05:17:58.882Z,100.00
2023-02-26T05:20:01.496Z,100.00
2023-02-26T05:22:04.111Z,100.00
2023-02-26T05:24:07.261Z,100.00
2023-02-26T05:26:09.845Z,100.00
2023-02-26T05:28:12.543Z,100.00
2023-02-26T05:30:17.062Z,100.00
2023-02-26T05:32:21.011Z,100.00
2023-02-26T05:34:23.587Z,100.00
2023-02-26T05:36:26.640Z,100.00
2023-02-26T05:38:29.461Z,100.00
2023-02-26T05:40:32.136Z,100.00
2023-02-26T05:42:34.770Z,100.00
2023-02-26T05:44:37.490Z,100.00
2023-02-26T05:46:40.218Z,100.00
2023-02-26T05:48:45.896Z,100.00
2023-02-26T05:50:51.415Z,100.00
2023-02-26T05:52:54.490Z,100.00
2023-02-26T05:54:57.142Z,100.00
2023-02-26T05:57:00.105Z,100.00
2023-02-26T05:59:03.833Z,100.00
2023-02-26T06:01:06.857Z,100.00
2023-02-26T06:03:09.538Z,100.00
2023-02-26T06:05:13.585Z,100.00
2023-02-26T06:07:16.217Z,100.00
2023-02-26T06:09:18.987Z,100.00
2023-02-26T06:11:22.034Z,100.00
2023-02-26T06:13:24.686Z,100.00
2023-02-26T06:15:27.294Z,100.00
2023-02-26T06:17:29.973Z,100.00
2023-02-26T06:19:32.722Z,100.00
2023-02-26T06:21:36.680Z,100.00
2023-02-26T06:23:39.406Z,100.00
2023-02-26T06:25:42.380Z,100.00
2023-02-26T06:27:45.237Z,100.00
2023-02-26T06:29:48.109Z,100.00
2023-02-26T06:31:51.138Z,100.00
2023-02-26T06:33:54.077Z,100.00
2023-02-26T06:35:57.967Z,100.00
2023-02-26T06:38:02.034Z,100.00
2023-02-26T06:40:05.646Z,100.00
2023-02-26T06:42:08.312Z,100.00
2023-02-26T06:44:11.625Z,100.00
2023-02-26T06:46:14.690Z,100.00
2023-02-26T06:48:17.591Z,100.00
2023-02-26T06:50:20.346Z,100.00
2023-02-26T06:52:23.045Z,100.00
2023-02-26T06:54:27.101Z,100.00
2023-02-26T06:56:30.058Z,100.00
2023-02-26T06:58:32.899Z,100.00
2023-02-26T07:00:36.189Z,100.00
2023-02-26T07:02:38.797Z,100.00
2023-02-26T07:04:41.528Z,100.00
2023-02-26T07:06:44.251Z,100.00
2023-02-26T07:08:47.036Z,100.00
2023-02-26T07:10:51.077Z,100.00
2023-02-26T07:12:53.692Z,100.00
2023-02-26T07:14:56.312Z,100.00
2023-02-26T07:16:59.004Z,100.00
2023-02-26T07:19:01.637Z,100.00
2023-02-26T07:21:05.046Z,100.00
2023-02-26T07:23:07.712Z,100.00
2023-02-26T07:25:11.103Z,100.00
2023-02-26T07:27:15.029Z,100.00
2023-02-26T07:29:17.668Z,100.00
2023-02-26T07:31:20.373Z,100.00
2023-02-26T07:33:23.347Z,100.00
2023-02-26T07:35:26.220Z,100.00
2023-02-26T07:37:29.540Z,100.00
2023-02-26T07:39:32.186Z,100.00
2023-02-26T07:41:34.825Z,100.00
2023-02-26T07:43:38.935Z,100.00
2023-02-26T07:45:41.783Z,100.00
2023-02-26T07:47:44.397Z,100.00
2023-02-26T07:49:47.110Z,100.00
2023-02-26T07:51:50.162Z,100.00
2023-02-26T07:53:53.011Z,100.00
2023-02-26T07:55:55.899Z,100.00
2023-02-26T07:57:58.624Z,100.00
2023-02-26T08:00:02.740Z,100.00
2023-02-26T08:02:05.836Z,100.00
2023-02-26T08:04:08.594Z,100.00
2023-02-26T08:06:11.248Z,100.00
2023-02-26T08:08:14.247Z,100.00
2023-02-26T08:10:16.936Z,100.00
2023-02-26T08:12:19.625Z,100.00
2023-02-26T08:14:22.290Z,100.00
2023-02-26T08:16:26.713Z,100.00
2023-02-26T08:18:29.585Z,100.00
2023-02-26T08:20:32.270Z,100.00
2023-02-26T08:22:34.977Z,100.00
2023-02-26T08:24:37.631Z,100.00
2023-02-26T08:26:40.521Z,100.00
2023-02-26T08:28:43.188Z,100.00
2023-02-26T08:30:45.842Z,100.00
2023-02-26T08:32:49.846Z,100.00
2023-02-26T08:34:52.486Z,100.00
2023-02-26T08:36:55.166Z,100.00
2023-02-26T08:38:58.326Z,100.00
2023-02-26T08:41:01.323Z,100.00
2023-02-26T08:43:04.505Z,100.00
2023-02-26T08:45:08.295Z,100.00
2023-02-26T08:47:11.617Z,100.00
2023-02-26T08:49:15.643Z,100.00
2023-02-26T08:51:18.981Z,100.00
2023-02-26T08:53:21.640Z,100.00
2023-02-26T08:55:24.442Z,100.00
2023-02-26T08:57:28.242Z,100.00
2023-02-26T08:59:30.840Z,100.00
2023-02-26T09:01:33.867Z,100.00
2023-02-26T09:03:36.704Z,100.00
2023-02-26T09:05:40.954Z,100.00
2023-02-26T09:07:44.019Z,100.00
2023-02-26T09:09:46.860Z,100.00
2023-02-26T09:11:49.604Z,100.00
2023-02-26T09:13:52.868Z,100.00
2023-02-26T09:15:55.553Z,100.00
2023-02-26T09:17:58.200Z,100.00
2023-02-26T09:20:01.086Z,100.00
2023-02-26T09:22:06.466Z,100.00
2023-02-26T09:24:09.942Z,100.00
2023-02-26T09:26:12.782Z,100.00
2023-02-26T09:28:15.506Z,100.00
2023-02-26T09:30:18.296Z,100.00
2023-02-26T09:32:21.159Z,100.00
2023-02-26T09:34:23.959Z,100.00
2023-02-26T09:36:27.441Z,100.00
2023-02-26T09:38:31.811Z,100.00
2023-02-26T09:40:43.761Z,100.00
2023-02-26T09:43:02.241Z,100.00
2023-02-26T09:45:07.173Z,100.00
2023-02-26T09:47:17.140Z,100.00
2023-02-26T09:49:28.395Z,100.00
2023-02-26T09:51:34.993Z,100.00
2023-02-26T09:53:42.100Z,100.00
2023-02-26T09:55:46.724Z,100.00
2023-02-26T09:57:52.723Z,100.00
2023-02-26T09:59:55.631Z,100.00
2023-02-26T10:02:03.404Z,100.00
2023-02-26T10:04:15.752Z,100.00
2023-02-26T10:06:25.323Z,100.00
2023-02-26T10:08:39.700Z,100.00
2023-02-26T10:10:50.553Z,100.00
2023-02-26T10:12:54.104Z,100.00
2023-02-26T10:15:01.393Z,100.00
2023-02-26T10:17:15.401Z,100.00
2023-02-26T10:19:20.736Z,100.00
2023-02-26T10:21:27.593Z,100.00
2023-02-26T10:23:35.861Z,100.00
2023-02-26T10:25:41.160Z,100.00
2023-02-26T10:27:56.778Z,100.00
2023-02-26T10:30:03.820Z,100.00
2023-02-26T10:32:10.690Z,100.00
2023-02-26T10:34:22.576Z,100.00
2023-02-26T10:36:29.127Z,100.00
2023-02-26T10:38:32.947Z,99.91
2023-02-26T10:40:40.582Z,99.47
2023-02-26T10:42:48.664Z,99.48
2023-02-26T10:45:01.090Z,99.49
2023-02-26T10:47:15.904Z,99.90
2023-02-26T10:49:40.939Z,99.99
2023-02-26T10:51:44.781Z,98.71
2023-02-26T10:53:51.865Z,97.79
2023-02-26T10:55:58.136Z,97.84
2023-02-26T10:58:07.784Z,97.04
2023-02-26T11:00:18.225Z,97.15
2023-02-26T11:02:34.857Z,96.47
2023-02-26T11:04:37.663Z,95.19
2023-02-26T11:06:44.120Z,94.29
2023-02-26T11:08:50.468Z,93.54
2023-02-26T11:10:55.409Z,92.81
2023-02-26T11:13:00.382Z,92.76
2023-02-26T11:15:05.546Z,92.54
2023-02-26T11:17:12.906Z,92.10
2023-02-26T11:19:17.200Z,92.46
2023-02-26T11:21:23.964Z,90.77
2023-02-26T11:23:28.253Z,91.05
2023-02-26T11:25:35.669Z,91.55
2023-02-26T11:27:39.545Z,91.03
2023-02-26T11:29:44.216Z,90.98
2023-02-26T11:31:51.880Z,91.03
2023-02-26T11:34:00.174Z,90.22
2023-02-26T11:36:07.274Z,90.13
2023-02-26T11:38:15.628Z,90.47
2023-02-26T11:40:24.732Z,88.45
2023-02-26T11:42:28.748Z,88.02
2023-02-26T11:44:37.502Z,87.84
2023-02-26T11:46:45.573Z,88.16
2023-02-26T11:48:51.653Z,88.24
2023-02-26T11:50:58.834Z,87.90
2023-02-26T11:53:07.758Z,86.94
2023-02-26T11:55:20.571Z,87.70
2023-02-26T11:57:26.499Z,87.34
2023-02-26T11:59:32.967Z,87.38
2023-02-26T12:01:37.726Z,87.46
2023-02-26T12:03:46.182Z,86.86
2023-02-26T12:05:50.557Z,86.80
2023-02-26T12:07:53.206Z,87.58
2023-02-26T12:09:55.884Z,88.33
2023-02-26T12:12:17.521Z,89.10
2023-02-26T12:14:48.999Z,90.08
2023-02-26T12:17:03.835Z,90.19
2023-02-26T12:19:14.610Z,89.77
2023-02-26T12:21:33.338Z,88.98
2023-02-26T12:23:56.481Z,88.15
2023-02-26T12:26:26.965Z,87.51
2023-02-26T12:28:58.470Z,88.20
2023-02-26T12:31:19.465Z,87.71
2023-02-26T12:33:36.106Z,89.17
2023-02-26T12:35:46.300Z,89.37
2023-02-26T12:38:01.506Z,88.94
2023-02-26T12:40:23.930Z,90.58
2023-02-26T12:42:40.095Z,90.81
2023-02-26T12:45:04.190Z,91.12
2023-02-26T12:47:27.489Z,90.65
2023-02-26T12:49:52.082Z,89.92
2023-02-26T12:52:18.295Z,88.91
2023-02-26T12:54:37.578Z,87.67
2023-02-26T12:57:00.283Z,86.89
2023-02-26T12:59:18.775Z,86.52
2023-02-26T13:01:38.158Z,86.54
2023-02-26T13:04:06.834Z,86.33
2023-02-26T13:06:30.310Z,86.55
2023-02-26T13:08:40.934Z,86.74
2023-02-26T13:10:59.572Z,86.18
2023-02-26T13:13:17.802Z,86.02
2023-02-26T13:15:49.252Z,85.98
2023-02-26T13:17:59.824Z,86.32
2023-02-26T13:20:05.008Z,87.18
2023-02-26T13:22:16.432Z,86.39
2023-02-26T13:24:25.729Z,86.24
2023-02-26T13:26:30.825Z,85.87
2023-02-26T13:28:40.691Z,83.86
2023-02-26T13:30:49.270Z,83.67
2023-02-26T13:32:55.188Z,82.90
2023-02-26T13:35:01.006Z,82.07
2023-02-26T13:37:05.289Z,81.80
2023-02-26T13:39:22.559Z,81.08
2023-02-26T13:41:38.276Z,80.45
2023-02-26T13:44:06.164Z,79.27
2023-02-26T13:46:30.970Z,77.49
2023-02-26T13:48:42.969Z,77.26
2023-02-26T13:50:58.547Z,76.41
2023-02-26T13:53:04.685Z,73.91
2023-02-26T13:55:07.948Z,74.39
2023-02-26T13:57:27.958Z,73.76
2023-02-26T13:59:37.598Z,73.73
2023-02-26T14:01:51.558Z,72.59
2023-02-26T14:04:09.979Z,72.19
2023-02-26T14:06:42.441Z,71.76
2023-02-26T14:08:50.285Z,72.45
2023-02-26T14:10:58.193Z,72.30
2023-02-26T14:13:12.911Z,71.64
2023-02-26T14:15:32.634Z,70.77
2023-02-26T14:17:50.027Z,71.45
2023-02-26T14:20:18.777Z,71.29
2023-02-26T14:22:23.647Z,71.35
2023-02-26T14:24:36.682Z,70.84
2023-02-26T14:26:39.902Z,71.28
2023-02-26T14:29:10.056Z,71.23
2023-02-26T14:31:22.272Z,71.43
2023-02-26T14:33:30.650Z,70.69
2023-02-26T14:35:36.042Z,70.11
2023-02-26T14:37:42.482Z,70.42
2023-02-26T14:39:49.593Z,70.09
2023-02-26T14:41:57.863Z,69.99
2023-02-26T14:44:06.517Z,69.78
2023-02-26T14:46:11.044Z,69.39
2023-02-26T14:48:16.405Z,69.37
2023-02-26T14:50:22.266Z,69.68
2023-02-26T14:52:51.724Z,70.01
2023-02-26T14:55:09.599Z,69.22
2023-02-26T14:57:20.630Z,69.04
2023-02-26T14:59:39.637Z,69.12
2023-02-26T15:01:49.249Z,69.46
2023-02-26T15:04:14.985Z,69.67
2023-02-26T15:06:32.533Z,69.31
2023-02-26T15:08:53.709Z,69.83
2023-02-26T15:11:11.094Z,69.81
2023-02-26T15:13:33.086Z,69.98
2023-02-26T15:15:49.048Z,70.73
2023-02-26T15:18:19.637Z,70.49
2023-02-26T15:20:32.118Z,69.85
2023-02-26T15:22:49.946Z,70.08
2023-02-26T15:24:53.462Z,70.69
2023-02-26T15:27:00.481Z,70.52
2023-02-26T15:29:05.694Z,70.41
2023-02-26T15:31:13.778Z,70.99
2023-02-26T15:33:20.348Z,70.73
2023-02-26T15:35:24.064Z,70.77
2023-02-26T15:37:30.058Z,70.70
2023-02-26T15:39:32.759Z,70.84
2023-02-26T15:41:35.669Z,70.67
2023-02-26T15:43:38.529Z,71.16
2023-02-26T15:45:44.783Z,71.08
2023-02-26T15:47:53.054Z,71.51
2023-02-26T15:49:56.568Z,69.40
2023-02-26T15:52:01.605Z,69.17
2023-02-26T15:54:06.183Z,69.08
2023-02-26T15:56:12.556Z,69.31
2023-02-26T15:58:21.787Z,69.61
2023-02-26T16:00:25.692Z,69.39
2023-02-26T16:02:31.797Z,69.28
2023-02-26T16:04:38.253Z,69.47
2023-02-26T16:06:43.154Z,68.23
2023-02-26T16:08:45.891Z,67.78
2023-02-26T16:10:48.855Z,66.48
2023-02-26T16:12:54.992Z,66.85
2023-02-26T16:15:01.786Z,66.95
2023-02-26T16:17:06.229Z,66.59
2023-02-26T16:19:14.679Z,67.47
2023-02-26T16:21:28.552Z,66.24
2023-02-26T16:23:41.789Z,66.68
2023-02-26T16:25:52.848Z,66.33
2023-02-26T16:28:00.731Z,66.64
2023-02-26T16:30:06.077Z,67.04
2023-02-26T16:32:12.138Z,66.76
2023-02-26T16:34:27.034Z,66.86
2023-02-26T16:36:34.375Z,66.78
2023-02-26T16:38:46.073Z,66.98
2023-02-26T16:40:58.399Z,66.80
2023-02-26T16:43:03.674Z,66.44
2023-02-26T16:45:19.851Z,66.95
2023-02-26T16:47:32.046Z,66.91
2023-02-26T16:49:37.452Z,66.99
2023-02-26T16:51:43.316Z,66.79
2023-02-26T16:53:49.566Z,66.69
2023-02-26T16:55:54.752Z,66.61
2023-02-26T16:57:57.824Z,66.61
2023-02-26T17:00:04.551Z,66.05
2023-02-26T17:02:14.358Z,65.43
2023-02-26T17:04:19.161Z,65.49
2023-02-26T17:06:23.487Z,65.87
2023-02-26T17:08:32.683Z,66.27
2023-02-26T17:10:40.971Z,66.12
2023-02-26T17:12:46.464Z,66.32
2023-02-26T17:14:56.669Z,66.04
2023-02-26T17:16:59.688Z,65.80
2023-02-26T17:19:02.676Z,65.99
2023-02-26T17:21:06.698Z,65.80
2023-02-26T17:23:10.323Z,65.98
2023-02-26T17:25:19.421Z,65.73
2023-02-26T17:27:28.175Z,66.31
2023-02-26T17:29:34.589Z,65.92
2023-02-26T17:31:37.972Z,65.98
2023-02-26T17:33:43.311Z,65.71
2023-02-26T17:35:46.221Z,65.94
2023-02-26T17:37:49.049Z,66.13
2023-02-26T17:39:51.978Z,66.01
2023-02-26T17:41:56.184Z,65.93
2023-02-26T17:43:58.878Z,65.78
2023-02-26T17:46:01.778Z,65.65
2023-02-26T17:48:05.822Z,65.73
2023-02-26T17:50:21.635Z,66.07
2023-02-26T17:52:24.373Z,65.52
2023-02-26T17:54:26.960Z,65.52
2023-02-26T17:56:31.600Z,65.48
2023-02-26T17:58:39.475Z,65.62
2023-02-26T18:00:42.968Z,65.85
2023-02-26T18:02:45.787Z,66.23
2023-02-26T18:04:48.457Z,66.30
2023-02-26T18:06:51.343Z,65.95
2023-02-26T18:08:54.130Z,66.28
2023-02-26T18:10:57.849Z,66.19
2023-02-26T18:13:00.606Z,66.35
2023-02-26T18:15:05.824Z,66.33
2023-02-26T18:17:11.829Z,66.47
2023-02-26T18:19:15.455Z,66.99
2023-02-26T18:21:20.263Z,67.11
2023-02-26T18:23:23.026Z,67.29
2023-02-26T18:25:27.681Z,67.41
2023-02-26T18:27:30.887Z,67.96
2023-02-26T18:29:33.634Z,67.53
2023-02-26T18:31:38.127Z,67.78
2023-02-26T18:33:43.903Z,67.69
2023-02-26T18:35:50.069Z,67.64
2023-02-26T18:37:53.600Z,68.23
2023-02-26T18:39:56.762Z,67.93
2023-02-26T18:41:59.429Z,68.21
2023-02-26T18:44:02.174Z,68.07
2023-02-26T18:46:05.237Z,68.63
2023-02-26T18:48:11.774Z,68.29
2023-02-26T18:50:15.944Z,68.90
2023-02-26T18:52:19.310Z,69.06
2023-02-26T18:54:22.005Z,69.63
2023-02-26T18:56:24.665Z,69.79
2023-02-26T18:58:27.415Z,69.73
2023-02-26T19:00:30.192Z,70.45
2023-02-26T19:02:34.201Z,70.26
2023-02-26T19:04:38.777Z,70.34
2023-02-26T19:06:41.574Z,70.58
2023-02-26T19:08:44.226Z,70.42
2023-02-26T19:10:46.975Z,70.81
2023-02-26T19:12:51.040Z,71.21
2023-02-26T19:14:53.714Z,71.04
2023-02-26T19:16:56.404Z,71.22
2023-02-26T19:18:59.879Z,71.67
2023-02-26T19:21:05.855Z,72.14
2023-02-26T19:23:09.187Z,72.08
2023-02-26T19:25:12.022Z,72.11
2023-02-26T19:27:15.454Z,71.85
2023-02-26T19:29:20.306Z,72.02
2023-02-26T19:31:23.017Z,72.45
2023-02-26T19:33:25.989Z,72.24
2023-02-26T19:35:29.619Z,72.38
2023-02-26T19:37:33.788Z,72.59
2023-02-26T19:39:36.498Z,72.42
2023-02-26T19:41:39.115Z,72.57
2023-02-26T19:43:41.800Z,72.50
2023-02-26T19:45:44.489Z,72.39
2023-02-26T19:47:47.430Z,72.10
2023-02-26T19:49:50.181Z,72.26
2023-02-26T19:51:53.091Z,72.34
2023-02-26T19:53:57.106Z,72.08
2023-02-26T19:55:59.745Z,71.85
2023-02-26T19:58:02.452Z,72.60
2023-02-26T20:00:06.904Z,72.52
2023-02-26T20:02:10.430Z,72.51
2023-02-26T20:04:13.827Z,72.45
2023-02-26T20:06:16.608Z,72.52
2023-02-26T20:08:19.918Z,72.44
2023-02-26T20:10:24.417Z,72.91
2023-02-26T20:12:27.104Z,73.12
2023-02-26T20:14:29.743Z,72.56
2023-02-26T20:16:35.126Z,73.04
2023-02-26T20:18:38.372Z,73.36
2023-02-26T20:20:43.785Z,73.86
2023-02-26T20:22:46.481Z,73.61
2023-02-26T20:24:49.212Z,74.19
2023-02-26T20:26:53.346Z,74.10
2023-02-26T20:28:55.966Z,74.09
2023-02-26T20:30:59.303Z,74.62
2023-02-26T20:33:02.107Z,75.02
2023-02-26T20:35:05.239Z,75.68
2023-02-26T20:37:07.959Z,75.71
2023-02-26T20:39:10.659Z,75.09
2023-02-26T20:41:13.305Z,75.64
2023-02-26T20:43:17.372Z,76.01
2023-02-26T20:45:20.146Z,76.53
2023-02-26T20:47:22.766Z,75.99
2023-02-26T20:49:25.597Z,76.27
2023-02-26T20:51:28.664Z,75.98
2023-02-26T20:53:31.495Z,76.15
2023-02-26T20:55:34.260Z,76.32
2023-02-26T20:57:36.960Z,76.27
2023-02-26T20:59:40.968Z,76.47
2023-02-26T21:01:43.682Z,76.33
2023-02-26T21:03:46.376Z,76.79
2023-02-26T21:05:49.035Z,76.97
2023-02-26T21:07:51.712Z,77.19
2023-02-26T21:09:55.454Z,77.17
2023-02-26T21:11:58.039Z,77.09
2023-02-26T21:14:01.883Z,77.54
2023-02-26T21:16:06.421Z,77.27
2023-02-26T21:18:09.173Z,77.68
2023-02-26T21:20:17.835Z,77.72
2023-02-26T21:22:21.405Z,78.09
2023-02-26T21:24:25.148Z,78.10
2023-02-26T21:26:27.854Z,78.13
2023-02-26T21:28:30.625Z,78.17
2023-02-26T21:30:33.263Z,78.53
2023-02-26T21:32:37.531Z,78.71
2023-02-26T21:34:40.156Z,79.22
2023-02-26T21:36:45.301Z,79.00
2023-02-26T21:38:47.977Z,78.34
2023-02-26T21:40:50.735Z,78.19
2023-02-26T21:42:53.352Z,78.04
2023-02-26T21:44:56.157Z,78.50
2023-02-26T21:46:59.324Z,78.53
2023-02-26T21:49:03.303Z,78.66
2023-02-26T21:51:06.670Z,78.40
2023-02-26T21:53:09.400Z,78.45
2023-02-26T21:55:12.452Z,79.12
2023-02-26T21:57:15.109Z,79.44
2023-02-26T21:59:17.929Z,79.39
2023-02-26T22:01:20.653Z,79.12
2023-02-26T22:03:23.244Z,79.04
2023-02-26T22:05:27.439Z,79.14
2023-02-26T22:07:30.229Z,78.84
2023-02-26T22:09:32.851Z,79.24
2023-02-26T22:11:35.666Z,78.96
2023-02-26T22:13:38.312Z,79.60
2023-02-26T22:15:41.297Z,79.87
2023-02-26T22:17:43.856Z,79.74
2023-02-26T22:19:46.531Z,79.98
2023-02-26T22:21:50.520Z,80.32
2023-02-26T22:23:53.266Z,80.84
2023-02-26T22:25:55.882Z,80.15
2023-02-26T22:27:58.603Z,80.35
2023-02-26T22:30:01.188Z,80.68
2023-02-26T22:32:03.952Z,80.54
2023-02-26T22:34:06.737Z,80.52
2023-02-26T22:36:09.501Z,80.72
2023-02-26T22:38:13.491Z,80.40
2023-02-26T22:40:16.584Z,81.03
2023-02-26T22:42:19.528Z,81.36
2023-02-26T22:44:22.310Z,81.35
2023-02-26T22:46:28.265Z,81.51
2023-02-26T22:48:31.028Z,81.95
2023-02-26T22:50:34.342Z,81.73
2023-02-26T22:52:37.237Z,81.91
2023-02-26T22:54:41.779Z,82.30
2023-02-26T22:56:44.499Z,81.79
2023-02-26T22:58:47.139Z,82.07
2023-02-26T23:00:49.825Z,82.41
2023-02-26T23:02:52.559Z,81.97
2023-02-26T23:04:55.311Z,82.06
2023-02-26T23:06:58.042Z,82.12
2023-02-26T23:09:00.715Z,82.32
2023-02-26T23:11:05.578Z,82.41
2023-02-26T23:13:08.476Z,82.03
2023-02-26T23:15:12.380Z,82.66
2023-02-26T23:17:15.055Z,82.56
2023-02-26T23:19:17.804Z,82.59
2023-02-26T23:21:20.853Z,82.76
2023-02-26T23:23:23.791Z,82.68
2023-02-26T23:25:26.823Z,82.66
2023-02-26T23:27:30.821Z,82.85
2023-02-26T23:29:33.528Z,83.05
2023-02-26T23:31:36.274Z,83.01
2023-02-26T23:33:38.971Z,83.06
2023-02-26T23:35:41.676Z,83.49
2023-02-26T23:37:44.370Z,83.13
2023-02-26T23:39:48.937Z,83.46
2023-02-26T23:41:51.647Z,83.92
2023-02-26T23:43:55.650Z,84.00
2023-02-26T23:45:58.289Z,84.04
2023-02-26T23:48:00.943Z,84.31
2023-02-26T23:50:03.960Z,84.45
2023-02-26T23:52:06.693Z,84.52
2023-02-26T23:54:09.370Z,84.69
2023-02-26T23:56:12.070Z,84.81
2023-02-26T23:58:14.746Z,84.94
